Latest Weather Observations for Scherger

IDQ60801

Issued at 2:22 am EST Wednesday 19 February 2020 (issued every 10 minutes, with the page automatically refreshed every 10 minutes)

About weather observations | Map of weather stations | Latest weather observations for QLD | Other Formats
Station Details ID: 027075 Name: SCHERGER RAAF Lat: -12.62 Lon: 142.09 Height: 39.34 m
Data from the previous 72 hours. | See also: Recent months at Scherger
Date/Time
EST
Temp
°C
App
Temp
°C
Dew
Point
°C
Rel
Hum
%
Delta-T
°C
Wind Press
QNH
hPa
Press
MSL
hPa
Rain since
9am
mm
Dir  Spd
km/h
Gust
km/h
Spd
kts
Gust
kts
19/02:00am 25.8 32.1 24.8 94 0.7 CALM 0 0 0 0 1006.4 1006.1 1.6
19/01:30am 25.8 32.0 24.6 93 0.8 CALM 0 0 0 0 1006.7 1006.4 1.6
19/01:00am 25.9 32.2 24.7 93 0.8 CALM 0 0 0 0 1007.2 1006.9 1.6
19/12:30am 25.7 31.7 24.3 92 1.0 CALM 0 2 0 1 1007.5 1007.2 1.6
19/12:00am 25.7 31.7 24.3 92 1.0 CALM 0 0 0 0 1007.5 1007.2 1.6
 
Date/Time
EST
Temp
°C
App
Temp
°C
Dew
Point
°C
Rel
Hum
%
Delta-T
°C
Wind Press
QNH
hPa
Press
MSL
hPa
Rain since
9am
mm
Dir  Spd
km/h
Gust
km/h
Spd
kts
Gust
kts
18/11:30pm 25.7 31.7 24.3 92 1.0 CALM 0 7 0 4 1007.7 1007.4 1.6
18/11:00pm 25.8 31.9 24.4 92 1.0 CALM 0 0 0 0 1007.8 1007.5 1.6
18/10:30pm 26.0 32.3 24.8 93 0.8 CALM 0 0 0 0 1007.5 1007.2 1.6
18/10:00pm 25.8 32.0 24.6 93 0.8 CALM 0 0 0 0 1007.3 1007.0 1.6
18/09:30pm 25.8 31.8 24.2 91 1.1 CALM 0 0 0 0 1006.8 1006.5 1.6
18/09:00pm 25.8 31.6 24.0 90 1.2 CALM 0 0 0 0 1006.4 1006.1 1.6
18/08:30pm 25.7 31.5 23.9 90 1.2 CALM 0 6 0 3 1006.3 1006.0 1.6
18/08:00pm 25.8 31.5 23.7 88 1.4 CALM 0 0 0 0 1006.4 1006.1 1.6
18/07:30pm 25.8 31.3 24.0 90 1.2 ESE 2 7 1 4 1006.2 1005.9 1.6
18/07:00pm 26.0 31.8 24.0 89 1.4 CALM 0 6 0 3 1005.7 1005.4 1.6
18/06:30pm 26.0 30.3 23.7 87 1.6 SE 7 11 4 6 1005.2 1004.9 1.6
18/06:00pm 26.5 30.7 23.4 83 2.1 SE 7 13 4 7 1005.4 1005.1 1.6
18/05:30pm 27.8 30.3 22.5 73 3.6 SW 13 26 7 14 1005.0 1004.7 1.2
18/05:00pm 29.7 33.6 24.8 75 3.4 N 13 19 7 10 1004.4 1004.1 1.2
18/04:30pm 30.9 36.2 25.9 74 3.6 NNW 9 15 5 8 1004.4 1004.1 1.2
18/04:00pm 30.7 35.8 25.5 74 3.7 NNW 9 13 5 7 1004.3 1004.0 1.2
18/03:30pm 30.7 36.1 26.0 76 3.4 NNW 9 17 5 9 1004.4 1004.1 1.2
18/03:00pm 28.8 33.9 25.0 80 2.7 WNW 7 11 4 6 1004.8 1004.5 1.2
18/02:30pm 26.5 30.3 24.0 86 1.7 NNW 11 20 6 11 1005.6 1005.3 1.2
18/02:00pm 29.8 32.0 23.3 68 4.5 NW 17 33 9 18 1006.0 1005.7 0.0
18/01:30pm 33.0 37.6 24.7 61 5.9 NW 9 19 5 10 1005.5 1005.2 0.0
18/01:00pm 32.7 36.0 23.9 60 6.2 WNW 13 20 7 11 1006.2 1005.9 0.0
18/12:30pm 32.2 35.8 23.7 61 5.9 WNW 11 17 6 9 1006.7 1006.4 0.0
18/12:00pm 32.1 36.7 24.2 63 5.5 NW 7 13 4 7 1007.4 1007.1 0.0
18/11:30am 31.2 34.5 23.8 64 5.1 NNW 13 20 7 11 1007.8 1007.5 0.0
18/11:00am 31.4 37.0 25.7 71 4.1 NNW 7 13 4 7 1008.0 1007.7 0.0
18/10:30am 30.8 35.7 25.2 72 4.0 NW 9 15 5 8 1008.5 1008.2 0.0
18/10:00am 30.6 36.4 26.1 77 3.2 WNW 7 15 4 8 1008.7 1008.4 0.0
18/09:30am 30.1 36.2 25.6 77 3.2 N 4 13 2 7 1009.0 1008.7 0.0
18/09:00am 28.8 34.9 25.6 83 2.3 SSE 4 7 2 4 1009.0 1008.7 4.2
18/08:30am 27.7 34.3 25.3 87 1.7 CALM 0 0 0 0 1009.0 1008.7 4.2
18/08:00am 26.8 33.3 25.0 90 1.3 CALM 0 0 0 0 1008.6 1008.3 4.2
18/07:30am 26.1 32.5 24.9 93 0.8 CALM 0 0 0 0 1007.9 1007.6 4.2
18/07:02am 25.7 32.3 25.2 97 0.3 CALM 0 0 0 0 1007.8 1007.5 4.2
18/07:01am 25.7 32.3 25.2 97 0.3 CALM 0 0 0 0 1007.8 - 4.2
18/07:00am 25.7 32.3 25.2 97 0.3 CALM 0 0 0 0 1007.8 1007.5 4.2
18/06:30am 25.6 31.0 25.1 97 0.3 NE 6 9 3 5 1007.7 1007.4 4.2
18/06:00am 25.7 32.3 25.2 97 0.3 CALM 0 0 0 0 1007.5 1007.2 4.2
18/05:41am 25.7 32.2 25.0 96 0.5 CALM 0 0 0 0 1007.2 1006.9 4.2
18/05:40am 25.6 32.0 24.9 96 0.5 CALM 0 0 0 0 1007.2 - 4.2
18/05:30am 25.6 32.0 24.9 96 0.5 CALM 0 6 0 3 1007.0 1006.7 4.2
18/05:22am 25.6 30.9 24.9 96 0.5 NE 6 9 3 5 1006.9 1006.6 4.2
18/05:21am 25.6 30.9 24.9 96 0.5 NE 6 9 3 5 1006.9 - 4.2
18/05:00am 25.6 31.0 25.1 97 0.3 NE 6 9 3 5 1006.8 1006.5 4.2
18/04:43am 25.7 31.0 25.0 96 0.5 NE 6 11 3 6 1007.0 1006.7 4.2
18/04:42am 25.7 31.0 25.0 96 0.5 NE 6 11 3 6 1007.0 - 4.2
18/04:30am 25.7 31.8 25.0 96 0.5 NNE 2 9 1 5 1007.1 1006.8 4.2
18/04:00am 25.7 32.2 25.0 96 0.5 CALM 0 0 0 0 1007.3 1007.0 4.2
18/03:30am 25.8 32.2 24.9 95 0.6 CALM 0 0 0 0 1007.6 1007.3 4.2
18/03:00am 25.7 32.0 24.8 95 0.6 CALM 0 0 0 0 1007.5 1007.2 4.2
18/02:30am 25.7 32.0 24.8 95 0.6 CALM 0 0 0 0 1007.5 1007.2 4.2
18/02:00am 25.7 32.0 24.7 94 0.7 CALM 0 0 0 0 1007.8 1007.5 4.2
18/01:30am 25.6 31.7 24.4 93 0.8 CALM 0 0 0 0 1007.7 1007.4 4.2
18/01:00am 25.8 32.0 24.6 93 0.8 CALM 0 0 0 0 1008.0 1007.7 4.2
18/12:30am 26.1 32.0 24.7 92 1.0 SSW 2 6 1 3 1008.7 1008.4 4.2
18/12:00am 25.8 31.5 23.8 89 1.4 CALM 0 0 0 0 1009.0 1008.7 4.2
 
Date/Time
EST
Temp
°C
App
Temp
°C
Dew
Point
°C
Rel
Hum
%
Delta-T
°C
Wind Press
QNH
hPa
Press
MSL
hPa
Rain since
9am
mm
Dir  Spd
km/h
Gust
km/h
Spd
kts
Gust
kts
17/11:30pm 25.9 31.8 24.1 90 1.2 CALM 0 0 0 0 1009.5 1009.2 4.2
17/11:00pm 25.6 31.3 23.7 89 1.3 CALM 0 0 0 0 1009.3 1009.0 4.2
17/10:30pm 25.8 30.7 23.7 88 1.4 NE 4 7 2 4 1008.9 1008.6 4.2
17/10:00pm 26.0 30.9 23.7 87 1.6 NE 4 7 2 4 1008.9 1008.6 4.2
17/09:30pm 26.2 32.0 23.9 87 1.6 CALM 0 0 0 0 1008.5 1008.2 4.2
17/09:00pm 26.5 31.5 23.8 85 1.9 E 4 7 2 4 1008.4 1008.1 4.2
17/08:30pm 26.9 32.9 24.2 85 1.9 CALM 0 0 0 0 1008.4 1008.1 4.2
17/08:00pm 27.2 32.2 24.8 87 1.7 NE 7 13 4 7 1008.1 1007.8 4.2
17/07:30pm 27.6 33.0 25.4 88 1.5 NE 7 11 4 6 1007.8 1007.5 4.2
17/07:00pm 27.7 34.4 25.9 90 1.3 N 2 9 1 5 1007.1 1006.8 4.2
17/06:30pm 27.9 34.9 25.9 89 1.4 CALM 0 0 0 0 1006.7 1006.4 4.2
17/06:00pm 28.3 35.2 25.7 86 1.8 CALM 0 0 0 0 1006.5 1006.2 4.2
17/05:30pm 28.2 34.9 25.4 85 2.0 CALM 0 0 0 0 1006.4 1006.1 4.2
17/05:00pm 28.3 34.4 25.1 83 2.3 SSW 2 7 1 4 1006.0 1005.7 4.2
17/04:30pm 27.6 33.7 25.0 86 1.8 W 2 7 1 4 1005.7 1005.4 4.2
17/04:00pm 27.2 32.4 24.8 87 1.7 SSW 6 11 3 6 1005.4 1005.1 4.2
17/03:30pm 26.5 30.6 24.0 86 1.7 NNW 9 17 5 9 1006.1 1005.8 4.2
17/03:00pm 25.9 29.2 23.8 88 1.4 N 13 22 7 12 1007.4 1007.1 4.2
17/02:30pm 26.7 29.4 22.8 79 2.6 NNE 13 24 7 13 1007.6 1007.3 4.2
17/02:00pm 28.1 31.4 23.2 74 3.4 WNW 11 20 6 11 1006.9 1006.6 4.2
17/01:30pm 28.7 33.3 25.3 82 2.4 W 11 19 6 10 1007.2 1006.9 4.2
17/01:00pm 28.0 34.8 25.6 87 1.7 CALM 0 6 0 3 1007.8 1007.5 4.0
17/12:30pm 30.4 34.5 24.5 70 4.1 W 11 20 6 11 1008.1 1007.8 0.2
17/12:00pm 31.8 37.1 25.2 68 4.7 NNW 7 11 4 6 1008.4 1008.1 0.2
17/11:30am 31.3 35.8 25.2 70 4.3 NW 11 17 6 9 1008.6 1008.3 0.2
17/11:00am 32.0 37.3 25.3 67 4.8 NW 7 17 4 9 1008.8 1008.5 0.2
17/10:30am 30.8 36.2 25.4 73 3.8 W 7 11 4 6 1008.9 1008.6 0.2
17/10:00am 30.6 36.3 25.9 76 3.4 WNW 7 13 4 7 1009.2 1008.9 0.2
17/09:59am 30.6 36.4 26.1 77 3.2 WNW 7 13 4 7 1009.2 - 0.2
17/09:45am 30.5 36.9 26.7 80 2.7 WNW 6 9 3 5 1009.3 1009.0 0.2
17/09:44am 30.4 36.4 26.1 78 3.1 WNW 6 11 3 6 1009.3 - 0.2
17/09:30am 29.7 35.3 25.7 79 2.8 WNW 7 15 4 8 1009.2 1008.9 0.0
17/09:00am 28.9 34.3 25.5 82 2.4 NNE 7 11 4 6 1009.0 1008.7 27.0
17/08:30am 27.7 32.9 25.1 86 1.8 NNE 7 11 4 6 1008.8 1008.5 27.0
17/08:00am 26.5 31.8 24.9 91 1.1 ENE 6 9 3 5 1008.5 1008.2 27.0
17/07:30am 25.6 31.9 24.7 95 0.6 CALM 0 0 0 0 1008.2 1007.9 27.0
17/07:26am 25.7 32.2 25.0 96 0.5 CALM 0 0 0 0 1008.2 1007.9 27.0
17/07:00am 25.3 31.5 24.6 96 0.5 CALM 0 0 0 0 1008.0 1007.7 27.0
17/06:36am 25.0 31.0 24.3 96 0.5 CALM 0 0 0 0 1007.7 1007.4 27.0
17/06:35am 25.0 31.0 24.3 96 0.5 CALM 0 0 0 0 1007.7 - 27.0
17/06:30am 25.0 30.9 24.1 95 0.6 CALM 0 0 0 0 1007.6 1007.3 27.0
17/06:00am 25.1 31.1 24.2 95 0.6 CALM 0 0 0 0 1007.5 1007.2 27.0
17/05:30am 25.1 31.1 24.2 95 0.6 CALM 0 0 0 0 1007.4 1007.1 27.0
17/05:00am 25.0 30.5 24.1 95 0.6 ENE 2 7 1 4 1006.9 1006.6 27.0
17/04:30am 25.0 30.9 24.1 95 0.6 CALM 0 0 0 0 1006.8 1006.5 27.0
17/04:00am 25.0 30.9 24.1 95 0.6 CALM 0 0 0 0 1006.8 1006.5 27.0
17/03:30am 25.0 30.8 24.0 94 0.7 CALM 0 0 0 0 1006.7 1006.4 27.0
17/03:00am 25.1 31.0 24.1 94 0.7 CALM 0 0 0 0 1007.1 1006.8 27.0
17/02:30am 25.1 31.0 24.1 94 0.7 CALM 0 0 0 0 1007.5 1007.2 27.0
17/02:00am 25.3 31.0 24.4 95 0.6 ENE 2 9 1 5 1007.9 1007.6 27.0
17/01:30am 25.4 31.5 24.5 95 0.6 CALM 0 0 0 0 1008.2 1007.9 27.0
17/01:00am 25.3 31.3 24.3 94 0.7 CALM 0 0 0 0 1008.7 1008.4 27.0
17/12:30am 25.3 31.3 24.3 94 0.7 CALM 0 0 0 0 1008.8 1008.5 27.0
17/12:00am 25.2 31.2 24.2 94 0.7 CALM 0 0 0 0 1009.0 1008.7 27.0
 
Date/Time
EST
Temp
°C
App
Temp
°C
Dew
Point
°C
Rel
Hum
%
Delta-T
°C
Wind Press
QNH
hPa
Press
MSL
hPa
Rain since
9am
mm
Dir  Spd
km/h
Gust
km/h
Spd
kts
Gust
kts
16/11:30pm 25.0 30.0 23.8 93 0.8 SE 4 7 2 4 1009.0 1008.7 27.0
16/11:00pm 24.7 29.1 23.5 93 0.8 WNW 6 11 3 6 1009.0 1008.7 27.0
16/10:30pm 24.6 27.2 22.7 89 1.3 WNW 13 22 7 12 1009.7 1009.4 27.0
16/10:26pm 24.6 27.3 22.8 90 1.2 WNW 13 22 7 12 1009.9 1009.6 27.0
16/10:20pm 24.8 27.9 23.6 93 0.8 NW 13 22 7 12 1010.1 - 26.8
16/10:04pm 24.8 28.1 23.2 91 1.1 WNW 11 19 6 10 1010.2 1009.9 20.6
16/10:00pm 24.9 29.0 23.3 91 1.1 W 7 15 4 8 1010.1 1009.8 17.4
16/09:30pm 27.1 30.5 23.3 80 2.6 NE 11 26 6 14 1009.2 1008.9 0.0
16/09:00pm 28.6 35.6 25.8 85 2.0 CALM 0 0 0 0 1008.8 1008.5 0.0
16/08:30pm 28.8 35.6 25.6 83 2.3 CALM 0 0 0 0 1008.5 1008.2 0.0
16/08:00pm 29.1 35.4 25.3 80 2.7 WSW 2 7 1 4 1008.4 1008.1 0.0
16/07:30pm 29.3 34.5 25.1 78 3.0 W 7 13 4 7 1007.5 1007.2 0.0
16/07:00pm 29.7 34.8 25.0 76 3.3 W 7 17 4 9 1007.4 1007.1 0.0
16/06:30pm 30.1 34.2 25.2 75 3.5 WSW 13 20 7 11 1006.9 1006.6 0.0
16/06:00pm 30.7 34.7 24.4 69 4.4 WNW 11 24 6 13 1006.3 1006.0 0.0
16/05:30pm 31.5 34.6 23.6 63 5.5 W 13 28 7 15 1006.2 1005.9 0.0
16/05:00pm 31.9 34.6 23.4 60 5.9 W 15 30 8 16 1006.0 1005.7 0.0
16/04:30pm 31.7 34.9 24.3 65 5.2 W 15 26 8 14 1005.8 1005.5 0.0
16/04:00pm 32.0 35.1 23.5 60 5.9 NW 13 26 7 14 1006.0 1005.7 0.0
16/03:30pm 34.0 38.2 24.8 58 6.5 WNW 11 20 6 11 1005.9 1005.6 0.0
16/03:00pm 33.5 37.0 25.5 63 5.7 W 17 26 9 14 1006.4 1006.1 0.0
16/02:30pm 33.3 37.0 23.9 58 6.6 NW 11 20 6 11 1006.5 1006.2 0.0
16/02:00pm 32.8 36.2 23.4 57 6.5 WNW 11 22 6 12 1006.9 1006.6 0.0
16/01:30pm 33.0 36.3 23.9 59 6.4 NW 13 20 7 11 1007.4 1007.1 0.0
16/01:00pm 32.6 35.7 23.5 58 6.3 WNW 13 22 7 12 1007.8 1007.5 0.0
16/12:30pm 32.0 36.3 24.3 63 5.4 WNW 9 17 5 9 1008.2 1007.9 0.0
16/12:00pm 31.6 34.8 23.7 63 5.5 NW 13 26 7 14 1008.8 1008.5 0.0
16/11:30am 31.5 34.5 23.3 61 5.7 W 13 22 7 12 1009.2 1008.9 0.0
16/11:00am 31.4 34.3 21.8 56 6.5 WSW 9 15 5 8 1009.6 1009.3 0.0
16/10:30am 30.7 33.3 22.0 59 5.9 W 11 20 6 11 1009.7 1009.4 0.0
16/10:00am 30.9 35.3 22.8 62 5.6 SSW 4 11 2 6 1009.5 1009.2 0.0
16/09:30am 29.6 33.1 22.1 64 5.1 WSW 7 15 4 8 1009.6 1009.3 0.0
16/09:00am 28.6 31.8 22.3 68 4.3 WSW 9 13 5 7 1009.4 1009.1 2.0
16/08:30am 28.3 31.8 21.8 68 4.4 WSW 6 11 3 6 1008.8 1008.5 2.0
16/08:00am 28.4 32.7 22.6 71 3.9 NNE 4 9 2 5 1008.6 1008.3 2.0
16/07:30am 26.8 30.4 22.4 77 3.0 NNW 7 13 4 7 1008.1 1007.8 2.0
16/07:00am 26.0 29.8 22.7 82 2.2 NNW 7 11 4 6 1008.0 1007.7 2.0
16/06:30am 25.7 29.9 23.2 86 1.7 W 6 11 3 6 1008.0 1007.7 2.0
16/06:00am 26.1 31.9 25.2 95 0.6 W 4 9 2 5 1007.3 1007.0 2.0
16/05:30am 26.1 32.0 25.4 96 0.5 NNW 4 9 2 5 1006.7 1006.4 2.0
16/05:00am 25.8 31.6 25.1 96 0.5 NW 4 7 2 4 1006.8 1006.5 2.0
16/04:30am 25.3 31.3 24.3 94 0.7 CALM 0 0 0 0 1007.0 1006.7 2.0
16/04:00am 25.3 31.3 24.3 94 0.7 CALM 0 0 0 0 1007.0 1006.7 2.0
16/03:30am 25.3 31.2 24.1 93 0.8 CALM 0 0 0 0 1007.0 1006.7 2.0
16/03:00am 25.5 31.4 24.1 92 1.0 CALM 0 0 0 0 1006.9 1006.6 2.0
16/02:30am 25.6 31.4 24.0 91 1.1 CALM 0 0 0 0 1006.5 1006.2 2.0

Other formats

Comma delimited format used in spreadsheet applications
http://www.bom.gov.au/fwo/IDQ60801/IDQ60801.94171.axf

JavaScript Object Notation format (JSON) in row-major order
http://www.bom.gov.au/fwo/IDQ60801/IDQ60801.94171.json

Data quality

Most of these data are generated automatically and are frequently updated. Quality checks on data are not normally performed. It is possible for incorrect values to appear. Refer to information at About Latest Weather Observations and please check the disclaimer before using these data.